sensor_id;sensor_type;location;lat;lon;timestamp;temperature;humidity
2042;DHT22;1026;51.460;7.252;2023-02-28T00:00:44;2.60;91.40
2042;DHT22;1026;51.460;7.252;2023-02-28T00:03:09;2.60;91.40
2042;DHT22;1026;51.460;7.252;2023-02-28T00:05:35;2.60;91.40
2042;DHT22;1026;51.460;7.252;2023-02-28T00:08:01;2.40;91.30
2042;DHT22;1026;51.460;7.252;2023-02-28T00:10:28;2.50;91.40
2042;DHT22;1026;51.460;7.252;2023-02-28T00:12:56;2.50;91.40
2042;DHT22;1026;51.460;7.252;2023-02-28T00:15:24;2.50;91.40
2042;DHT22;1026;51.460;7.252;2023-02-28T00:17:50;2.50;91.40
2042;DHT22;1026;51.460;7.252;2023-02-28T00:20:16;2.60;91.40
2042;DHT22;1026;51.460;7.252;2023-02-28T00:22:44;2.60;91.40
2042;DHT22;1026;51.460;7.252;2023-02-28T00:25:12;2.50;91.30
2042;DHT22;1026;51.460;7.252;2023-02-28T00:27:39;2.50;91.30
2042;DHT22;1026;51.460;7.252;2023-02-28T00:30:08;2.50;91.30
2042;DHT22;1026;51.460;7.252;2023-02-28T00:32:35;2.50;91.30
2042;DHT22;1026;51.460;7.252;2023-02-28T00:35:01;2.50;91.40
2042;DHT22;1026;51.460;7.252;2023-02-28T00:37:27;2.50;91.40
2042;DHT22;1026;51.460;7.252;2023-02-28T00:39:53;2.50;91.40
2042;DHT22;1026;51.460;7.252;2023-02-28T00:42:19;2.50;91.40
2042;DHT22;1026;51.460;7.252;2023-02-28T00:44:44;2.50;91.30
2042;DHT22;1026;51.460;7.252;2023-02-28T00:47:10;2.50;91.30
2042;DHT22;1026;51.460;7.252;2023-02-28T00:49:36;2.50;91.30
2042;DHT22;1026;51.460;7.252;2023-02-28T00:52:02;2.50;91.30
2042;DHT22;1026;51.460;7.252;2023-02-28T00:54:27;2.40;91.30
2042;DHT22;1026;51.460;7.252;2023-02-28T00:56:53;2.40;91.30
2042;DHT22;1026;51.460;7.252;2023-02-28T00:59:19;2.40;91.30
2042;DHT22;1026;51.460;7.252;2023-02-28T01:01:45;2.40;91.30
2042;DHT22;1026;51.460;7.252;2023-02-28T01:04:12;2.40;91.30
2042;DHT22;1026;51.460;7.252;2023-02-28T01:06:37;2.30;91.30
2042;DHT22;1026;51.460;7.252;2023-02-28T01:09:04;2.40;91.30
2042;DHT22;1026;51.460;7.252;2023-02-28T01:11:31;2.40;91.30
2042;DHT22;1026;51.460;7.252;2023-02-28T01:13:57;2.40;91.30
2042;DHT22;1026;51.460;7.252;2023-02-28T01:16:24;2.40;91.30
2042;DHT22;1026;51.460;7.252;2023-02-28T01:18:49;2.40;91.30
2042;DHT22;1026;51.460;7.252;2023-02-28T01:21:16;2.40;91.30
2042;DHT22;1026;51.460;7.252;2023-02-28T01:23:43;2.30;91.60
2042;DHT22;1026;51.460;7.252;2023-02-28T01:26:12;2.40;91.30
2042;DHT22;1026;51.460;7.252;2023-02-28T01:28:38;2.30;91.30
2042;DHT22;1026;51.460;7.252;2023-02-28T01:31:04;2.40;91.30
2042;DHT22;1026;51.460;7.252;2023-02-28T01:33:31;2.30;91.30
2042;DHT22;1026;51.460;7.252;2023-02-28T01:35:58;2.30;91.30
2042;DHT22;1026;51.460;7.252;2023-02-28T01:38:24;2.30;91.30
2042;DHT22;1026;51.460;7.252;2023-02-28T01:40:50;2.30;91.30
2042;DHT22;1026;51.460;7.252;2023-02-28T01:43:22;2.30;91.30
2042;DHT22;1026;51.460;7.252;2023-02-28T01:45:48;2.10;91.20
2042;DHT22;1026;51.460;7.252;2023-02-28T01:48:14;2.30;91.30
2042;DHT22;1026;51.460;7.252;2023-02-28T01:50:43;2.20;91.20
2042;DHT22;1026;51.460;7.252;2023-02-28T01:53:16;2.30;91.30
2042;DHT22;1026;51.460;7.252;2023-02-28T01:55:47;2.20;91.20
2042;DHT22;1026;51.460;7.252;2023-02-28T01:58:14;2.30;91.30
2042;DHT22;1026;51.460;7.252;2023-02-28T02:00:40;2.30;91.30
2042;DHT22;1026;51.460;7.252;2023-02-28T02:03:10;2.30;91.20
2042;DHT22;1026;51.460;7.252;2023-02-28T02:05:38;2.20;91.20
2042;DHT22;1026;51.460;7.252;2023-02-28T02:08:07;2.20;91.20
2042;DHT22;1026;51.460;7.252;2023-02-28T02:10:44;2.20;91.20
2042;DHT22;1026;51.460;7.252;2023-02-28T02:18:53;2.20;91.20
2042;DHT22;1026;51.460;7.252;2023-02-28T02:24:23;2.20;91.20
2042;DHT22;1026;51.460;7.252;2023-02-28T02:27:17;2.20;91.20
2042;DHT22;1026;51.460;7.252;2023-02-28T02:30:05;2.00;91.40
2042;DHT22;1026;51.460;7.252;2023-02-28T02:35:27;2.10;91.10
2042;DHT22;1026;51.460;7.252;2023-02-28T02:38:07;2.10;91.10
2042;DHT22;1026;51.460;7.252;2023-02-28T02:40:42;2.10;91.10
2042;DHT22;1026;51.460;7.252;2023-02-28T02:43:24;2.10;91.20
2042;DHT22;1026;51.460;7.252;2023-02-28T02:45:58;2.10;91.10
2042;DHT22;1026;51.460;7.252;2023-02-28T02:48:29;2.10;91.10
2042;DHT22;1026;51.460;7.252;2023-02-28T02:50:58;2.10;91.10
2042;DHT22;1026;51.460;7.252;2023-02-28T02:53:31;2.10;91.10
2042;DHT22;1026;51.460;7.252;2023-02-28T02:55:59;2.10;91.10
2042;DHT22;1026;51.460;7.252;2023-02-28T02:58:28;2.10;91.10
2042;DHT22;1026;51.460;7.252;2023-02-28T03:00:58;2.10;91.10
2042;DHT22;1026;51.460;7.252;2023-02-28T03:03:25;2.10;91.10
2042;DHT22;1026;51.460;7.252;2023-02-28T03:05:57;2.00;91.10
2042;DHT22;1026;51.460;7.252;2023-02-28T03:08:23;2.00;91.10
2042;DHT22;1026;51.460;7.252;2023-02-28T03:10:51;2.00;91.00
2042;DHT22;1026;51.460;7.252;2023-02-28T03:16:22;1.90;91.00
2042;DHT22;1026;51.460;7.252;2023-02-28T03:18:53;2.00;91.10
2042;DHT22;1026;51.460;7.252;2023-02-28T03:21:24;2.00;91.00
2042;DHT22;1026;51.460;7.252;2023-02-28T03:23:57;1.90;91.00
2042;DHT22;1026;51.460;7.252;2023-02-28T03:26:27;2.00;91.00
2042;DHT22;1026;51.460;7.252;2023-02-28T03:29:15;2.00;91.00
2042;DHT22;1026;51.460;7.252;2023-02-28T03:31:50;2.00;91.00
2042;DHT22;1026;51.460;7.252;2023-02-28T03:34:24;2.00;91.00
2042;DHT22;1026;51.460;7.252;2023-02-28T03:36:54;2.00;91.00
2042;DHT22;1026;51.460;7.252;2023-02-28T03:39:24;1.90;90.90
2042;DHT22;1026;51.460;7.252;2023-02-28T03:47:07;1.90;91.00
2042;DHT22;1026;51.460;7.252;2023-02-28T03:49:43;1.90;91.00
2042;DHT22;1026;51.460;7.252;2023-02-28T03:52:11;1.90;91.00
2042;DHT22;1026;51.460;7.252;2023-02-28T03:54:42;1.90;91.00
2042;DHT22;1026;51.460;7.252;2023-02-28T03:57:22;1.90;91.00
2042;DHT22;1026;51.460;7.252;2023-02-28T04:00:11;1.90;91.00
2042;DHT22;1026;51.460;7.252;2023-02-28T04:02:39;1.90;90.90
2042;DHT22;1026;51.460;7.252;2023-02-28T04:05:05;1.80;90.90
2042;DHT22;1026;51.460;7.252;2023-02-28T04:07:32;1.80;90.90
2042;DHT22;1026;51.460;7.252;2023-02-28T04:09:58;1.80;90.90
2042;DHT22;1026;51.460;7.252;2023-02-28T04:12:24;1.80;90.90
2042;DHT22;1026;51.460;7.252;2023-02-28T04:14:50;1.80;90.90
2042;DHT22;1026;51.460;7.252;2023-02-28T04:17:16;1.80;90.90
2042;DHT22;1026;51.460;7.252;2023-02-28T04:19:49;1.80;90.90
2042;DHT22;1026;51.460;7.252;2023-02-28T04:22:15;1.80;90.90
2042;DHT22;1026;51.460;7.252;2023-02-28T04:24:42;1.70;90.80
2042;DHT22;1026;51.460;7.252;2023-02-28T04:27:09;1.80;90.90
2042;DHT22;1026;51.460;7.252;2023-02-28T04:29:34;1.80;90.90
2042;DHT22;1026;51.460;7.252;2023-02-28T04:32:01;1.80;90.90
2042;DHT22;1026;51.460;7.252;2023-02-28T04:34:29;1.80;90.90
2042;DHT22;1026;51.460;7.252;2023-02-28T04:36:55;1.80;90.80
2042;DHT22;1026;51.460;7.252;2023-02-28T04:39:22;1.70;90.80
2042;DHT22;1026;51.460;7.252;2023-02-28T04:41:48;1.70;90.80
2042;DHT22;1026;51.460;7.252;2023-02-28T04:44:14;1.70;90.80
2042;DHT22;1026;51.460;7.252;2023-02-28T04:46:40;1.70;90.80
2042;DHT22;1026;51.460;7.252;2023-02-28T04:49:06;1.70;90.80
2042;DHT22;1026;51.460;7.252;2023-02-28T04:51:32;1.70;90.80
2042;DHT22;1026;51.460;7.252;2023-02-28T04:53:58;1.70;90.80
2042;DHT22;1026;51.460;7.252;2023-02-28T04:56:23;1.70;90.80
2042;DHT22;1026;51.460;7.252;2023-02-28T04:58:49;1.70;90.80
2042;DHT22;1026;51.460;7.252;2023-02-28T05:01:25;1.50;90.70
2042;DHT22;1026;51.460;7.252;2023-02-28T05:04:01;1.70;90.80
2042;DHT22;1026;51.460;7.252;2023-02-28T05:06:29;1.50;90.70
2042;DHT22;1026;51.460;7.252;2023-02-28T05:08:55;1.60;90.70
2042;DHT22;1026;51.460;7.252;2023-02-28T05:11:32;1.60;90.70
2042;DHT22;1026;51.460;7.252;2023-02-28T05:14:04;1.60;90.70
2042;DHT22;1026;51.460;7.252;2023-02-28T05:16:30;1.60;90.70
2042;DHT22;1026;51.460;7.252;2023-02-28T05:18:56;1.60;90.70
2042;DHT22;1026;51.460;7.252;2023-02-28T05:21:28;1.60;90.70
2042;DHT22;1026;51.460;7.252;2023-02-28T05:23:55;1.60;90.70
2042;DHT22;1026;51.460;7.252;2023-02-28T05:26:21;1.60;90.70
2042;DHT22;1026;51.460;7.252;2023-02-28T05:28:47;1.60;90.70
2042;DHT22;1026;51.460;7.252;2023-02-28T05:31:13;1.60;90.70
2042;DHT22;1026;51.460;7.252;2023-02-28T05:33:39;1.60;90.70
2042;DHT22;1026;51.460;7.252;2023-02-28T05:36:05;1.60;90.70
2042;DHT22;1026;51.460;7.252;2023-02-28T05:38:31;1.60;90.70
2042;DHT22;1026;51.460;7.252;2023-02-28T05:40:57;1.50;90.60
2042;DHT22;1026;51.460;7.252;2023-02-28T05:43:23;1.50;90.60
2042;DHT22;1026;51.460;7.252;2023-02-28T05:45:49;1.50;90.60
2042;DHT22;1026;51.460;7.252;2023-02-28T05:48:14;1.50;90.60
2042;DHT22;1026;51.460;7.252;2023-02-28T05:50:40;1.50;90.60
2042;DHT22;1026;51.460;7.252;2023-02-28T05:53:19;1.50;90.60
2042;DHT22;1026;51.460;7.252;2023-02-28T05:55:45;1.50;90.90
2042;DHT22;1026;51.460;7.252;2023-02-28T05:58:10;1.50;90.60
2042;DHT22;1026;51.460;7.252;2023-02-28T06:00:36;1.50;90.60
2042;DHT22;1026;51.460;7.252;2023-02-28T06:03:01;1.30;90.50
2042;DHT22;1026;51.460;7.252;2023-02-28T06:05:27;1.50;90.60
2042;DHT22;1026;51.460;7.252;2023-02-28T06:07:53;1.50;90.60
2042;DHT22;1026;51.460;7.252;2023-02-28T06:10:19;1.50;90.60
2042;DHT22;1026;51.460;7.252;2023-02-28T06:12:45;1.40;90.60
2042;DHT22;1026;51.460;7.252;2023-02-28T06:15:14;1.40;90.60
2042;DHT22;1026;51.460;7.252;2023-02-28T06:17:41;1.50;90.60
2042;DHT22;1026;51.460;7.252;2023-02-28T06:20:08;1.40;90.60
2042;DHT22;1026;51.460;7.252;2023-02-28T06:22:35;1.40;90.60
2042;DHT22;1026;51.460;7.252;2023-02-28T06:25:01;1.40;90.60
2042;DHT22;1026;51.460;7.252;2023-02-28T06:27:27;1.40;90.60
2042;DHT22;1026;51.460;7.252;2023-02-28T06:29:54;1.40;90.60
2042;DHT22;1026;51.460;7.252;2023-02-28T06:32:22;1.40;90.60
2042;DHT22;1026;51.460;7.252;2023-02-28T06:34:47;1.40;90.60
2042;DHT22;1026;51.460;7.252;2023-02-28T06:37:14;1.40;90.60
2042;DHT22;1026;51.460;7.252;2023-02-28T06:39:40;1.40;90.60
2042;DHT22;1026;51.460;7.252;2023-02-28T06:42:05;1.40;90.60
2042;DHT22;1026;51.460;7.252;2023-02-28T06:44:31;1.30;90.50
2042;DHT22;1026;51.460;7.252;2023-02-28T06:47:01;1.20;90.50
2042;DHT22;1026;51.460;7.252;2023-02-28T06:49:30;1.40;90.50
2042;DHT22;1026;51.460;7.252;2023-02-28T06:51:56;1.30;90.50
2042;DHT22;1026;51.460;7.252;2023-02-28T06:54:21;1.20;90.80
2042;DHT22;1026;51.460;7.252;2023-02-28T06:56:47;1.30;90.50
2042;DHT22;1026;51.460;7.252;2023-02-28T06:59:13;1.30;90.50
2042;DHT22;1026;51.460;7.252;2023-02-28T07:01:39;1.30;90.50
2042;DHT22;1026;51.460;7.252;2023-02-28T07:04:06;1.30;90.50
2042;DHT22;1026;51.460;7.252;2023-02-28T07:06:32;1.30;90.50
2042;DHT22;1026;51.460;7.252;2023-02-28T07:08:58;1.30;90.50
2042;DHT22;1026;51.460;7.252;2023-02-28T07:11:26;1.30;90.50
2042;DHT22;1026;51.460;7.252;2023-02-28T07:13:53;1.30;90.50
2042;DHT22;1026;51.460;7.252;2023-02-28T07:16:19;1.30;90.50
2042;DHT22;1026;51.460;7.252;2023-02-28T07:18:45;1.30;90.50
2042;DHT22;1026;51.460;7.252;2023-02-28T07:21:10;1.30;90.50
2042;DHT22;1026;51.460;7.252;2023-02-28T07:23:37;1.20;90.50
2042;DHT22;1026;51.460;7.252;2023-02-28T07:26:04;1.20;90.50
2042;DHT22;1026;51.460;7.252;2023-02-28T07:28:30;1.20;90.50
2042;DHT22;1026;51.460;7.252;2023-02-28T07:30:56;1.20;90.50
2042;DHT22;1026;51.460;7.252;2023-02-28T07:33:21;1.10;90.50
2042;DHT22;1026;51.460;7.252;2023-02-28T07:35:49;1.20;90.50
2042;DHT22;1026;51.460;7.252;2023-02-28T07:38:15;1.20;90.50
2042;DHT22;1026;51.460;7.252;2023-02-28T07:40:40;1.20;90.50
2042;DHT22;1026;51.460;7.252;2023-02-28T07:43:06;1.20;90.50
2042;DHT22;1026;51.460;7.252;2023-02-28T07:45:32;1.20;90.50
2042;DHT22;1026;51.460;7.252;2023-02-28T07:48:00;1.20;90.50
2042;DHT22;1026;51.460;7.252;2023-02-28T07:50:26;1.20;90.50
2042;DHT22;1026;51.460;7.252;2023-02-28T07:52:54;1.20;90.50
2042;DHT22;1026;51.460;7.252;2023-02-28T07:55:20;1.20;90.50
2042;DHT22;1026;51.460;7.252;2023-02-28T07:57:45;1.10;90.50
2042;DHT22;1026;51.460;7.252;2023-02-28T08:00:11;1.20;90.50
2042;DHT22;1026;51.460;7.252;2023-02-28T08:02:38;1.20;90.50
2042;DHT22;1026;51.460;7.252;2023-02-28T08:05:05;1.20;90.50
2042;DHT22;1026;51.460;7.252;2023-02-28T08:07:31;1.20;90.50
2042;DHT22;1026;51.460;7.252;2023-02-28T08:09:58;1.20;90.50
2042;DHT22;1026;51.460;7.252;2023-02-28T08:12:25;1.20;90.50
2042;DHT22;1026;51.460;7.252;2023-02-28T08:14:50;1.20;90.50
2042;DHT22;1026;51.460;7.252;2023-02-28T08:17:16;1.20;90.50
2042;DHT22;1026;51.460;7.252;2023-02-28T08:19:42;1.20;90.60
2042;DHT22;1026;51.460;7.252;2023-02-28T08:22:10;1.10;90.50
2042;DHT22;1026;51.460;7.252;2023-02-28T08:24:35;1.10;90.50
2042;DHT22;1026;51.460;7.252;2023-02-28T08:27:01;1.20;90.60
2042;DHT22;1026;51.460;7.252;2023-02-28T08:29:27;1.10;90.50
2042;DHT22;1026;51.460;7.252;2023-02-28T08:31:52;1.10;90.50
2042;DHT22;1026;51.460;7.252;2023-02-28T08:34:24;1.10;90.50
2042;DHT22;1026;51.460;7.252;2023-02-28T08:36:51;1.10;90.50
2042;DHT22;1026;51.460;7.252;2023-02-28T08:39:18;1.10;90.50
2042;DHT22;1026;51.460;7.252;2023-02-28T08:41:45;1.10;90.50
2042;DHT22;1026;51.460;7.252;2023-02-28T08:44:10;1.10;90.50
2042;DHT22;1026;51.460;7.252;2023-02-28T08:46:36;1.10;90.50
2042;DHT22;1026;51.460;7.252;2023-02-28T08:49:03;1.20;90.60
2042;DHT22;1026;51.460;7.252;2023-02-28T08:51:28;1.10;90.50
2042;DHT22;1026;51.460;7.252;2023-02-28T08:53:57;1.10;90.50
2042;DHT22;1026;51.460;7.252;2023-02-28T08:56:23;1.20;90.60
2042;DHT22;1026;51.460;7.252;2023-02-28T08:58:50;1.10;90.50
2042;DHT22;1026;51.460;7.252;2023-02-28T09:01:18;1.10;90.50
2042;DHT22;1026;51.460;7.252;2023-02-28T09:03:45;1.10;90.50
2042;DHT22;1026;51.460;7.252;2023-02-28T09:06:12;1.10;90.50
2042;DHT22;1026;51.460;7.252;2023-02-28T09:08:39;1.00;90.50
2042;DHT22;1026;51.460;7.252;2023-02-28T09:11:05;1.20;90.60
2042;DHT22;1026;51.460;7.252;2023-02-28T09:13:31;1.10;90.60
2042;DHT22;1026;51.460;7.252;2023-02-28T09:15:58;1.10;90.60
2042;DHT22;1026;51.460;7.252;2023-02-28T09:18:25;1.10;90.60
2042;DHT22;1026;51.460;7.252;2023-02-28T09:20:51;1.00;90.50
2042;DHT22;1026;51.460;7.252;2023-02-28T09:23:17;1.10;90.50
2042;DHT22;1026;51.460;7.252;2023-02-28T09:25:49;1.00;90.50
2042;DHT22;1026;51.460;7.252;2023-02-28T09:28:15;1.20;90.60
2042;DHT22;1026;51.460;7.252;2023-02-28T09:30:44;1.20;90.60
2042;DHT22;1026;51.460;7.252;2023-02-28T09:33:10;1.00;90.50
2042;DHT22;1026;51.460;7.252;2023-02-28T09:35:36;1.20;90.60
2042;DHT22;1026;51.460;7.252;2023-02-28T09:38:03;1.20;90.60
2042;DHT22;1026;51.460;7.252;2023-02-28T09:40:29;1.20;90.60
2042;DHT22;1026;51.460;7.252;2023-02-28T09:42:57;1.20;90.60
2042;DHT22;1026;51.460;7.252;2023-02-28T09:45:33;1.20;90.50
2042;DHT22;1026;51.460;7.252;2023-02-28T09:48:03;1.20;90.50
2042;DHT22;1026;51.460;7.252;2023-02-28T09:53:02;1.20;90.60
2042;DHT22;1026;51.460;7.252;2023-02-28T09:55:35;1.10;90.50
2042;DHT22;1026;51.460;7.252;2023-02-28T09:58:02;1.20;90.50
2042;DHT22;1026;51.460;7.252;2023-02-28T10:00:31;1.20;90.50
2042;DHT22;1026;51.460;7.252;2023-02-28T10:03:28;1.20;90.50
2042;DHT22;1026;51.460;7.252;2023-02-28T10:06:17;1.20;90.50
2042;DHT22;1026;51.460;7.252;2023-02-28T10:08:55;1.20;90.50
2042;DHT22;1026;51.460;7.252;2023-02-28T10:11:22;1.20;90.50
2042;DHT22;1026;51.460;7.252;2023-02-28T10:13:53;1.20;90.50
2042;DHT22;1026;51.460;7.252;2023-02-28T10:16:31;1.20;90.50
2042;DHT22;1026;51.460;7.252;2023-02-28T10:19:10;1.20;90.40
2042;DHT22;1026;51.460;7.252;2023-02-28T10:21:43;1.20;90.40
2042;DHT22;1026;51.460;7.252;2023-02-28T10:24:28;1.30;90.40
2042;DHT22;1026;51.460;7.252;2023-02-28T10:26:59;1.20;90.50
2042;DHT22;1026;51.460;7.252;2023-02-28T10:29:26;1.20;90.50
2042;DHT22;1026;51.460;7.252;2023-02-28T10:31:52;1.10;90.40
2042;DHT22;1026;51.460;7.252;2023-02-28T10:34:18;1.20;90.40
2042;DHT22;1026;51.460;7.252;2023-02-28T10:36:44;1.30;90.50
2042;DHT22;1026;51.460;7.252;2023-02-28T10:39:34;1.20;90.40
2042;DHT22;1026;51.460;7.252;2023-02-28T10:41:59;1.30;90.40
2042;DHT22;1026;51.460;7.252;2023-02-28T10:44:25;1.30;90.40
2042;DHT22;1026;51.460;7.252;2023-02-28T10:46:51;1.30;90.40
2042;DHT22;1026;51.460;7.252;2023-02-28T10:49:22;1.30;90.40
2042;DHT22;1026;51.460;7.252;2023-02-28T10:51:52;1.30;90.40
2042;DHT22;1026;51.460;7.252;2023-02-28T10:54:22;1.30;90.40
2042;DHT22;1026;51.460;7.252;2023-02-28T10:57:18;1.30;90.30
2042;DHT22;1026;51.460;7.252;2023-02-28T10:59:45;1.30;90.30
2042;DHT22;1026;51.460;7.252;2023-02-28T11:02:35;1.30;90.30
2042;DHT22;1026;51.460;7.252;2023-02-28T11:05:02;1.30;90.30
2042;DHT22;1026;51.460;7.252;2023-02-28T11:07:28;1.30;90.30
2042;DHT22;1026;51.460;7.252;2023-02-28T11:09:55;1.30;90.30
2042;DHT22;1026;51.460;7.252;2023-02-28T11:12:34;1.30;90.30
2042;DHT22;1026;51.460;7.252;2023-02-28T11:15:05;1.40;90.40
2042;DHT22;1026;51.460;7.252;2023-02-28T11:17:32;1.40;90.30
2042;DHT22;1026;51.460;7.252;2023-02-28T11:20:01;1.30;90.30
2042;DHT22;1026;51.460;7.252;2023-02-28T11:22:31;1.40;90.30
2042;DHT22;1026;51.460;7.252;2023-02-28T11:25:02;1.40;90.30
2042;DHT22;1026;51.460;7.252;2023-02-28T11:30:00;1.30;90.20
2042;DHT22;1026;51.460;7.252;2023-02-28T11:32:29;1.40;90.20
2042;DHT22;1026;51.460;7.252;2023-02-28T11:35:17;1.40;90.30
2042;DHT22;1026;51.460;7.252;2023-02-28T11:37:45;1.30;90.20
2042;DHT22;1026;51.460;7.252;2023-02-28T11:40:15;1.40;90.30
2042;DHT22;1026;51.460;7.252;2023-02-28T11:42:59;1.50;90.20
2042;DHT22;1026;51.460;7.252;2023-02-28T11:48:31;1.50;90.30
2042;DHT22;1026;51.460;7.252;2023-02-28T11:53:47;1.40;90.30
2042;DHT22;1026;51.460;7.252;2023-02-28T12:02:03;1.50;90.30
2042;DHT22;1026;51.460;7.252;2023-02-28T12:04:52;1.50;90.30
2042;DHT22;1026;51.460;7.252;2023-02-28T12:07:43;1.50;90.40
2042;DHT22;1026;51.460;7.252;2023-02-28T12:10:20;1.50;90.30
2042;DHT22;1026;51.460;7.252;2023-02-28T12:13:08;1.50;90.30
2042;DHT22;1026;51.460;7.252;2023-02-28T12:21:31;1.50;90.20
2042;DHT22;1026;51.460;7.252;2023-02-28T12:26:44;1.60;90.30
2042;DHT22;1026;51.460;7.252;2023-02-28T12:34:39;1.60;90.30
2042;DHT22;1026;51.460;7.252;2023-02-28T12:37:11;1.60;90.30
2042;DHT22;1026;51.460;7.252;2023-02-28T12:39:45;1.60;90.30
2042;DHT22;1026;51.460;7.252;2023-02-28T12:42:19;1.60;90.30
2042;DHT22;1026;51.460;7.252;2023-02-28T12:44:56;1.70;90.30
2042;DHT22;1026;51.460;7.252;2023-02-28T12:47:23;1.70;90.20
2042;DHT22;1026;51.460;7.252;2023-02-28T12:58:14;1.80;90.20
2042;DHT22;1026;51.460;7.252;2023-02-28T13:03:45;1.80;90.20
2042;DHT22;1026;51.460;7.252;2023-02-28T13:09:00;1.70;90.20
2042;DHT22;1026;51.460;7.252;2023-02-28T13:11:30;1.80;90.20
2042;DHT22;1026;51.460;7.252;2023-02-28T13:13:59;1.80;90.20
2042;DHT22;1026;51.460;7.252;2023-02-28T13:16:26;1.80;90.20
2042;DHT22;1026;51.460;7.252;2023-02-28T13:18:51;1.80;90.20
2042;DHT22;1026;51.460;7.252;2023-02-28T13:21:28;1.90;90.30
2042;DHT22;1026;51.460;7.252;2023-02-28T13:23:58;1.80;90.30
2042;DHT22;1026;51.460;7.252;2023-02-28T13:27:10;1.80;90.30
2042;DHT22;1026;51.460;7.252;2023-02-28T13:29:36;1.90;90.30
2042;DHT22;1026;51.460;7.252;2023-02-28T13:34:32;1.90;90.30
2042;DHT22;1026;51.460;7.252;2023-02-28T13:37:41;1.90;90.30
2042;DHT22;1026;51.460;7.252;2023-02-28T13:42:56;1.90;90.30
2042;DHT22;1026;51.460;7.252;2023-02-28T13:45:25;1.90;90.30
2042;DHT22;1026;51.460;7.252;2023-02-28T13:47:53;1.90;90.30
2042;DHT22;1026;51.460;7.252;2023-02-28T13:56:00;2.00;90.40
2042;DHT22;1026;51.460;7.252;2023-02-28T13:58:46;2.00;90.40
2042;DHT22;1026;51.460;7.252;2023-02-28T14:06:32;2.00;90.30
2042;DHT22;1026;51.460;7.252;2023-02-28T14:09:03;2.10;90.40
2042;DHT22;1026;51.460;7.252;2023-02-28T14:11:36;2.10;90.40
2042;DHT22;1026;51.460;7.252;2023-02-28T14:14:04;2.00;90.40
2042;DHT22;1026;51.460;7.252;2023-02-28T14:16:45;2.10;90.40
2042;DHT22;1026;51.460;7.252;2023-02-28T14:19:19;2.10;90.40
2042;DHT22;1026;51.460;7.252;2023-02-28T14:24:51;2.10;90.30
2042;DHT22;1026;51.460;7.252;2023-02-28T14:30:16;2.10;90.40
2042;DHT22;1026;51.460;7.252;2023-02-28T14:35:57;2.10;90.40
2042;DHT22;1026;51.460;7.252;2023-02-28T14:41:20;2.10;90.50
2042;DHT22;1026;51.460;7.252;2023-02-28T14:43:52;2.10;90.50
2042;DHT22;1026;51.460;7.252;2023-02-28T14:46:18;2.10;90.50
2042;DHT22;1026;51.460;7.252;2023-02-28T14:48:46;2.20;90.50
2042;DHT22;1026;51.460;7.252;2023-02-28T14:51:19;2.20;90.50
2042;DHT22;1026;51.460;7.252;2023-02-28T14:53:50;2.20;90.40
2042;DHT22;1026;51.460;7.252;2023-02-28T14:56:23;2.20;90.50
2042;DHT22;1026;51.460;7.252;2023-02-28T14:58:54;2.20;90.50
2042;DHT22;1026;51.460;7.252;2023-02-28T15:01:27;2.20;90.50
2042;DHT22;1026;51.460;7.252;2023-02-28T15:04:24;2.20;90.50
2042;DHT22;1026;51.460;7.252;2023-02-28T15:07:07;2.20;90.50
2042;DHT22;1026;51.460;7.252;2023-02-28T15:09:33;2.20;90.50
2042;DHT22;1026;51.460;7.252;2023-02-28T15:11:58;2.20;90.50
2042;DHT22;1026;51.460;7.252;2023-02-28T15:14:25;2.20;90.40
2042;DHT22;1026;51.460;7.252;2023-02-28T15:16:59;2.20;90.50
2042;DHT22;1026;51.460;7.252;2023-02-28T15:19:31;2.30;90.80
2042;DHT22;1026;51.460;7.252;2023-02-28T15:22:10;2.20;90.40
2042;DHT22;1026;51.460;7.252;2023-02-28T15:24:43;2.30;90.50
2042;DHT22;1026;51.460;7.252;2023-02-28T15:27:22;2.20;90.40
2042;DHT22;1026;51.460;7.252;2023-02-28T15:29:53;2.20;90.40
2042;DHT22;1026;51.460;7.252;2023-02-28T15:32:27;2.10;90.40
2042;DHT22;1026;51.460;7.252;2023-02-28T15:34:54;2.30;90.50
2042;DHT22;1026;51.460;7.252;2023-02-28T15:37:38;2.30;90.50
2042;DHT22;1026;51.460;7.252;2023-02-28T15:40:12;2.30;90.50
2042;DHT22;1026;51.460;7.252;2023-02-28T15:42:39;2.30;90.50
2042;DHT22;1026;51.460;7.252;2023-02-28T15:45:05;2.30;90.50
2042;DHT22;1026;51.460;7.252;2023-02-28T15:47:31;2.30;90.50
2042;DHT22;1026;51.460;7.252;2023-02-28T15:49:59;2.30;90.40
2042;DHT22;1026;51.460;7.252;2023-02-28T15:52:34;2.30;90.50
2042;DHT22;1026;51.460;7.252;2023-02-28T15:55:19;2.30;90.40
2042;DHT22;1026;51.460;7.252;2023-02-28T15:57:50;2.30;90.50
2042;DHT22;1026;51.460;7.252;2023-02-28T16:00:20;2.30;90.50
2042;DHT22;1026;51.460;7.252;2023-02-28T16:02:47;2.30;90.50
2042;DHT22;1026;51.460;7.252;2023-02-28T16:05:23;2.30;90.50
2042;DHT22;1026;51.460;7.252;2023-02-28T16:07:55;2.30;90.50
2042;DHT22;1026;51.460;7.252;2023-02-28T16:10:22;2.30;90.50
2042;DHT22;1026;51.460;7.252;2023-02-28T16:12:53;2.40;90.50
2042;DHT22;1026;51.460;7.252;2023-02-28T16:15:23;2.40;90.50
2042;DHT22;1026;51.460;7.252;2023-02-28T16:17:50;2.40;90.50
2042;DHT22;1026;51.460;7.252;2023-02-28T16:20:21;2.40;90.50
2042;DHT22;1026;51.460;7.252;2023-02-28T16:22:47;2.40;90.50
2042;DHT22;1026;51.460;7.252;2023-02-28T16:25:16;2.40;90.40
2042;DHT22;1026;51.460;7.252;2023-02-28T16:27:43;2.40;90.40
2042;DHT22;1026;51.460;7.252;2023-02-28T16:30:22;2.40;90.40
2042;DHT22;1026;51.460;7.252;2023-02-28T16:32:49;2.40;90.40
2042;DHT22;1026;51.460;7.252;2023-02-28T16:35:16;2.40;90.40
2042;DHT22;1026;51.460;7.252;2023-02-28T16:37:43;2.40;90.40
2042;DHT22;1026;51.460;7.252;2023-02-28T16:40:15;2.40;90.40
2042;DHT22;1026;51.460;7.252;2023-02-28T16:42:41;2.40;90.50
2042;DHT22;1026;51.460;7.252;2023-02-28T16:45:16;2.40;90.50
2042;DHT22;1026;51.460;7.252;2023-02-28T16:47:45;2.40;90.50
2042;DHT22;1026;51.460;7.252;2023-02-28T16:50:17;2.40;90.50
2042;DHT22;1026;51.460;7.252;2023-02-28T16:52:43;2.40;90.50
2042;DHT22;1026;51.460;7.252;2023-02-28T16:55:10;2.40;90.50
2042;DHT22;1026;51.460;7.252;2023-02-28T16:57:36;2.40;90.50
2042;DHT22;1026;51.460;7.252;2023-02-28T17:00:03;2.40;90.50
2042;DHT22;1026;51.460;7.252;2023-02-28T17:02:29;2.40;90.50
2042;DHT22;1026;51.460;7.252;2023-02-28T17:04:54;2.40;90.50
2042;DHT22;1026;51.460;7.252;2023-02-28T17:07:20;2.40;90.50
2042;DHT22;1026;51.460;7.252;2023-02-28T17:09:46;2.40;90.50
2042;DHT22;1026;51.460;7.252;2023-02-28T17:12:11;2.40;90.50
2042;DHT22;1026;51.460;7.252;2023-02-28T17:14:37;2.40;90.50
2042;DHT22;1026;51.460;7.252;2023-02-28T17:17:05;2.40;90.50
2042;DHT22;1026;51.460;7.252;2023-02-28T17:19:31;2.40;90.50
2042;DHT22;1026;51.460;7.252;2023-02-28T17:21:57;2.30;90.50
2042;DHT22;1026;51.460;7.252;2023-02-28T17:24:22;2.40;90.50
2042;DHT22;1026;51.460;7.252;2023-02-28T17:26:48;2.40;90.50
2042;DHT22;1026;51.460;7.252;2023-02-28T17:29:18;2.40;90.50
2042;DHT22;1026;51.460;7.252;2023-02-28T17:31:44;2.30;90.50
2042;DHT22;1026;51.460;7.252;2023-02-28T17:34:11;2.40;90.50
2042;DHT22;1026;51.460;7.252;2023-02-28T17:36:43;2.40;90.50
2042;DHT22;1026;51.460;7.252;2023-02-28T17:39:11;2.40;90.50
2042;DHT22;1026;51.460;7.252;2023-02-28T17:41:40;2.40;90.60
2042;DHT22;1026;51.460;7.252;2023-02-28T17:44:07;2.40;90.60
2042;DHT22;1026;51.460;7.252;2023-02-28T17:46:33;2.40;90.50
2042;DHT22;1026;51.460;7.252;2023-02-28T17:48:58;2.40;90.60
2042;DHT22;1026;51.460;7.252;2023-02-28T17:51:25;2.40;90.60
2042;DHT22;1026;51.460;7.252;2023-02-28T17:53:52;2.40;90.60
2042;DHT22;1026;51.460;7.252;2023-02-28T17:56:22;2.40;90.60
2042;DHT22;1026;51.460;7.252;2023-02-28T17:58:48;2.40;90.60
2042;DHT22;1026;51.460;7.252;2023-02-28T18:01:14;2.40;90.60
2042;DHT22;1026;51.460;7.252;2023-02-28T18:03:40;2.40;90.60